^^
Your Local Weather - Clay, NY Station Historical Data
Daily Summary for January 18, 2017 Units:  English    Metric   Both
« Previous Day
Next Day »
Daily Weekly Monthly Yearly Custom
  High: Low: Average:
Temperature: 37.6 °F 33.7 °F 35.8 °F
Dew Point: 36.0 °F 32.2 °F 34.2 °F
Humidity: 95% 93% 94%
Wind Speed: 3.0mph 0.0mph 0.8mph
Wind Gust: 7.0mph - -
Wind- - SSW
Pressure: 30.00 in 29.80 in -
Precipitation: 0.23 in    
Historical Graphs
 
 
Tabular Data for January 18, 2017
Time Temperature Dew Point Pressure Wind Wind Speed Wind Gust Humidity Rainfall Rate (Hourly) solar
00:02 34.0 °F 32.2 °F 29.82 in ENE 2.0 mph 3.0 mph 93% 0.00 in 0 W/m2
00:08 34.0 °F 32.2 °F 29.82 in ENE 1.0 mph 3.0 mph 93% 0.00 in 0 W/m2
00:14 34.1 °F 32.3 °F 29.82 in East 1.0 mph 3.0 mph 93% 0.00 in 0 W/m2
00:20 34.2 °F 32.4 °F 29.81 in ENE 2.0 mph 2.0 mph 93% 0.00 in 0 W/m2
00:26 34.3 °F 32.8 °F 29.81 in East 2.0 mph 3.0 mph 94% 0.00 in 0 W/m2
00:32 34.2 °F 32.7 °F 29.81 in ENE 2.0 mph 2.0 mph 94% 0.00 in 0 W/m2
00:38 34.2 °F 32.7 °F 29.81 in ENE 2.0 mph 3.0 mph 94% 0.00 in 0 W/m2
00:44 34.2 °F 32.7 °F 29.81 in ENE 2.0 mph 3.0 mph 94% 0.00 in 0 W/m2
00:50 34.2 °F 32.7 °F 29.81 in ENE 2.0 mph 3.0 mph 94% 0.00 in 0 W/m2
00:56 34.2 °F 32.7 °F 29.81 in ENE 2.0 mph 3.0 mph 94% 0.00 in 0 W/m2
01:02 34.2 °F 32.7 °F 29.81 in ENE 2.0 mph 3.0 mph 94% 0.00 in 0 W/m2
01:08 34.2 °F 32.7 °F 29.81 in ENE 2.0 mph 3.0 mph 94% 0.00 in 0 W/m2
01:14 34.3 °F 32.8 °F 29.81 in ENE 2.0 mph 3.0 mph 94% 0.00 in 0 W/m2
01:20 34.3 °F 32.8 °F 29.81 in ENE 2.0 mph 2.0 mph 94% 0.00 in 0 W/m2
01:26 34.3 °F 32.8 °F 29.80 in ESE 3.0 mph 5.0 mph 94% 0.00 in 0 W/m2
01:32 34.3 °F 32.8 °F 29.81 in ENE 3.0 mph 7.0 mph 94% 0.00 in 0 W/m2
01:38 34.4 °F 32.9 °F 29.81 in ENE 3.0 mph 7.0 mph 94% 0.00 in 0 W/m2
01:44 34.4 °F 32.9 °F 29.81 in East 3.0 mph 3.0 mph 94% 0.00 in 0 W/m2
01:50 34.4 °F 32.9 °F 29.81 in ENE 3.0 mph 3.0 mph 94% 0.00 in 0 W/m2
01:56 34.2 °F 32.7 °F 29.81 in ENE 3.0 mph 3.0 mph 94% 0.00 in 0 W/m2
02:02 34.2 °F 32.7 °F 29.81 in ENE 2.0 mph 3.0 mph 94% 0.00 in 0 W/m2
02:08 34.2 °F 32.7 °F 29.81 in ENE 2.0 mph 3.0 mph 94% 0.00 in 0 W/m2
02:14 34.2 °F 32.7 °F 29.81 in East 2.0 mph 2.0 mph 94% 0.00 in 0 W/m2
02:20 34.2 °F 32.7 °F 29.81 in East 2.0 mph 2.0 mph 94% 0.00 in 0 W/m2
02:26 34.2 °F 32.7 °F 29.81 in ENE 2.0 mph 3.0 mph 94% 0.00 in 0 W/m2
02:32 34.3 °F 32.8 °F 29.81 in ENE 2.0 mph 2.0 mph 94% 0.00 in 0 W/m2
02:38 34.2 °F 32.7 °F 29.81 in ENE 2.0 mph 4.0 mph 94% 0.00 in 0 W/m2
02:44 34.2 °F 32.7 °F 29.81 in ENE 2.0 mph 2.0 mph 94% 0.00 in 0 W/m2
02:50 34.2 °F 32.7 °F 29.81 in ENE 2.0 mph 2.0 mph 94% 0.00 in 0 W/m2
02:56 34.2 °F 32.7 °F 29.81 in ENE 2.0 mph 2.0 mph 94% 0.00 in 0 W/m2
03:02 34.1 °F 32.6 °F 29.81 in ENE 2.0 mph 3.0 mph 94% 0.00 in 0 W/m2
03:08 34.3 °F 32.8 °F 29.81 in ENE 2.0 mph 3.0 mph 94% 0.00 in 0 W/m2
03:14 34.2 °F 32.7 °F 29.81 in ENE 1.0 mph 3.0 mph 94% 0.00 in 0 W/m2
03:20 34.2 °F 32.7 °F 29.81 in ENE 2.0 mph 2.0 mph 94% 0.00 in 0 W/m2
03:26 34.3 °F 32.8 °F 29.81 in ENE 2.0 mph 2.0 mph 94% 0.00 in 0 W/m2
03:32 34.2 °F 32.7 °F 29.81 in ENE 1.0 mph 3.0 mph 94% 0.04 in 0 W/m2
03:38 34.2 °F 32.7 °F 29.81 in Calm   3.0 mph 94% 0.04 in 0 W/m2
03:44 34.2 °F 32.7 °F 29.81 in NE 1.0 mph 2.0 mph 94% 0.04 in 0 W/m2
03:50 34.2 °F 32.7 °F 29.81 in Calm     94% 0.00 in 0 W/m2
03:56 34.2 °F 32.7 °F 29.81 in Calm     94% 0.00 in 0 W/m2
04:02 34.1 °F 32.6 °F 29.81 in Calm     94% 0.13 in 0 W/m2
04:08 34.2 °F 32.7 °F 29.82 in Calm     94% 0.06 in 0 W/m2
04:14 34.3 °F 32.8 °F 29.82 in Calm   1.0 mph 94% 0.04 in 0 W/m2
04:20 34.3 °F 32.8 °F 29.82 in ENE 1.0 mph 1.0 mph 94% 0.00 in 0 W/m2
04:26 34.3 °F 32.8 °F 29.82 in ENE 1.0 mph 1.0 mph 94% 0.00 in 0 W/m2
04:32 34.1 °F 32.6 °F 29.82 in Calm   1.0 mph 94% 0.00 in 0 W/m2
04:38 34.1 °F 32.6 °F 29.82 in ENE 1.0 mph 1.0 mph 94% 0.00 in 0 W/m2
04:44 34.2 °F 32.7 °F 29.83 in ENE 1.0 mph 1.0 mph 94% 0.00 in 0 W/m2
04:50 34.2 °F 32.7 °F 29.83 in ENE 1.0 mph 1.0 mph 94% 0.00 in 0 W/m2
04:56 34.2 °F 32.7 °F 29.83 in Calm   1.0 mph 94% 0.00 in 0 W/m2
05:02 34.0 °F 32.5 °F 29.83 in Calm     94% 0.00 in 0 W/m2
05:08 34.0 °F 32.5 °F 29.83 in Calm     94% 0.00 in 0 W/m2
05:14 33.9 °F 32.4 °F 29.84 in Calm     94% 0.00 in 0 W/m2
05:20 33.9 °F 32.4 °F 29.84 in Calm     94% 0.00 in 0 W/m2
05:26 33.9 °F 32.4 °F 29.84 in Calm     94% 0.00 in 0 W/m2
05:32 33.8 °F 32.3 °F 29.84 in Calm     94% 0.00 in 0 W/m2
05:38 33.8 °F 32.3 °F 29.84 in Calm     94% 0.00 in 0 W/m2
05:44 33.8 °F 32.3 °F 29.84 in Calm     94% 0.00 in 0 W/m2
05:50 33.7 °F 32.2 °F 29.85 in Calm     94% 0.00 in 0 W/m2
05:56 33.7 °F 32.2 °F 29.85 in Calm     94% 0.00 in 0 W/m2
06:02 33.8 °F 32.3 °F 29.85 in Calm     94% 0.00 in 0 W/m2
06:08 33.9 °F 32.4 °F 29.85 in Calm     94% 0.00 in 0 W/m2
06:14 34.0 °F 32.5 °F 29.85 in Calm   1.0 mph 94% 0.00 in 0 W/m2
06:20 34.1 °F 32.6 °F 29.85 in ENE 1.0 mph 1.0 mph 94% 0.00 in 0 W/m2
06:26 34.2 °F 32.7 °F 29.85 in Calm   1.0 mph 94% 0.00 in 0 W/m2
06:32 34.2 °F 32.7 °F 29.86 in Calm     94% 0.00 in 0 W/m2
06:38 34.2 °F 32.7 °F 29.86 in Calm     94% 0.00 in 0 W/m2
06:44 34.2 °F 32.7 °F 29.86 in Calm   1.0 mph 94% 0.00 in 0 W/m2
06:50 34.1 °F 32.6 °F 29.87 in North 1.0 mph 2.0 mph 94% 0.00 in 0 W/m2
06:56 34.1 °F 32.6 °F 29.87 in North 1.0 mph 2.0 mph 94% 0.00 in 0 W/m2
07:02 34.1 °F 32.6 °F 29.87 in Calm     94% 0.00 in 0 W/m2
07:08 34.1 °F 32.6 °F 29.87 in Calm     94% 0.00 in 0 W/m2
07:14 34.1 °F 32.6 °F 29.87 in Calm     94% 0.00 in 0 W/m2
07:20 34.1 °F 32.6 °F 29.88 in Calm     94% 0.00 in 0 W/m2
07:26 34.0 °F 32.5 °F 29.88 in Calm     94% 0.00 in 0 W/m2
07:32 33.9 °F 32.4 °F 29.88 in Calm     94% 0.00 in 0 W/m2
07:38 34.1 °F 32.6 °F 29.88 in Calm     94% 0.00 in 0 W/m2
07:44 34.1 °F 32.6 °F 29.88 in Calm     94% 0.00 in 0 W/m2
07:50 34.2 °F 32.7 °F 29.88 in Calm     94% 0.00 in 0 W/m2
07:56 34.3 °F 32.8 °F 29.89 in Calm     94% 0.00 in 0 W/m2
08:02 34.7 °F 33.2 °F 29.89 in Calm     94% 0.00 in 5 W/m2
08:10 35.1 °F 33.5 °F 29.89 in Calm     94% 0.00 in 7 W/m2
08:16 35.7 °F 34.4 °F 29.89 in Calm   1.0 mph 95% 0.00 in 9 W/m2
08:22 36.1 °F 34.5 °F 29.89 in West 1.0 mph 1.0 mph 94% 0.00 in 11 W/m2
08:28 36.3 °F 35.0 °F 29.90 in West 1.0 mph 2.0 mph 95% 0.00 in 14 W/m2
08:34 36.4 °F 35.1 °F 29.90 in West 1.0 mph 1.0 mph 95% 0.00 in 19 W/m2
08:40 36.6 °F 35.0 °F 29.90 in West 1.0 mph 1.0 mph 94% 0.00 in 25 W/m2
08:46 36.7 °F 35.1 °F 29.89 in Calm   1.0 mph 94% 0.00 in 28 W/m2
08:52 36.8 °F 35.2 °F 29.89 in Calm   1.0 mph 94% 0.00 in 35 W/m2
08:58 36.9 °F 35.3 °F 29.89 in West 1.0 mph 1.0 mph 94% 0.00 in 42 W/m2
09:04 36.9 °F 35.6 °F 29.89 in Calm     95% 0.00 in 42 W/m2
09:10 37.0 °F 35.7 °F 29.89 in Calm     95% 0.00 in 44 W/m2
09:16 37.1 °F 35.8 °F 29.89 in Calm     95% 0.00 in 51 W/m2
09:22 37.2 °F 35.9 °F 29.90 in Calm   2.0 mph 95% 0.00 in 42 W/m2
09:28 37.1 °F 35.8 °F 29.90 in West 1.0 mph 2.0 mph 95% 0.00 in 33 W/m2
09:34 37.2 °F 35.9 °F 29.90 in West 1.0 mph 2.0 mph 95% 0.00 in 26 W/m2
09:40 37.1 °F 35.8 °F 29.91 in West 1.0 mph 1.0 mph 95% 0.00 in 28 W/m2
09:46 37.1 °F 35.8 °F 29.91 in West 1.0 mph 2.0 mph 95% 0.00 in 33 W/m2
09:52 37.2 °F 35.9 °F 29.91 in West 1.0 mph 1.0 mph 95% 0.00 in 33 W/m2
09:58 37.2 °F 35.9 °F 29.91 in West 1.0 mph 1.0 mph 95% 0.00 in 28 W/m2
10:04 37.2 °F 35.9 °F 29.91 in WNW 1.0 mph 1.0 mph 95% 0.00 in 25 W/m2
10:10 37.2 °F 35.6 °F 29.92 in WNW 1.0 mph 3.0 mph 94% 0.00 in 23 W/m2
10:16 37.1 °F 35.5 °F 29.93 in WNW 2.0 mph 3.0 mph 94% 0.00 in 32 W/m2
10:22 37.1 °F 35.5 °F 29.93 in WNW 2.0 mph 2.0 mph 94% 0.00 in 25 W/m2
10:42 37.1 °F 35.5 °F 29.93 in WNW 1.0 mph 1.0 mph 94% 0.00 in 30 W/m2
10:48 37.1 °F 35.5 °F 29.93 in WNW 1.0 mph 1.0 mph 94% 0.00 in 53 W/m2
11:10 37.4 °F 35.8 °F 29.93 in Calm     94% 0.00 in 63 W/m2
11:16 37.4 °F 35.8 °F 29.93 in WNW 1.0 mph 1.0 mph 94% 0.00 in 54 W/m2
11:22 37.4 °F 35.8 °F 29.93 in WNW 1.0 mph 1.0 mph 94% 0.00 in 42 W/m2
11:28 37.3 °F 35.7 °F 29.93 in WSW 1.0 mph 4.0 mph 94% 0.00 in 54 W/m2
11:34 37.4 °F 35.8 °F 29.93 in WSW 2.0 mph 3.0 mph 94% 0.00 in 47 W/m2
11:40 37.4 °F 35.8 °F 29.93 in WSW 2.0 mph 2.0 mph 94% 0.00 in 44 W/m2
11:46 37.4 °F 35.8 °F 29.93 in WSW 1.0 mph 2.0 mph 94% 0.00 in 47 W/m2
11:52 37.4 °F 35.8 °F 29.92 in West 1.0 mph 3.0 mph 94% 0.00 in 60 W/m2
11:58 37.5 °F 35.9 °F 29.92 in West 1.0 mph 3.0 mph 94% 0.00 in 63 W/m2
12:06 37.5 °F 35.9 °F 29.92 in WSW 1.0 mph 1.0 mph 94% 0.00 in 54 W/m2
12:12 37.6 °F 36.0 °F 29.91 in WSW 1.0 mph 1.0 mph 94% 0.00 in 70 W/m2
12:18 37.6 °F 36.0 °F 29.91 in NW 1.0 mph 3.0 mph 94% 0.00 in 60 W/m2
12:26 37.6 °F 36.0 °F 29.91 in WSW 1.0 mph 1.0 mph 94% 0.00 in 60 W/m2
12:32 37.6 °F 36.0 °F 29.91 in SW 1.0 mph 1.0 mph 94% 0.00 in 42 W/m2
12:38 37.5 °F 35.9 °F 29.91 in SW 1.0 mph 4.0 mph 94% 0.00 in 42 W/m2
12:46 37.5 °F 35.9 °F 29.91 in West 1.0 mph 1.0 mph 94% 0.00 in 35 W/m2
12:52 37.5 °F 35.9 °F 29.91 in Calm   1.0 mph 94% 0.00 in 51 W/m2
12:58 37.5 °F 35.9 °F 29.91 in WSW 1.0 mph 2.0 mph 94% 0.00 in 58 W/m2
13:06 37.5 °F 35.9 °F 29.91 in West 1.0 mph 2.0 mph 94% 0.00 in 69 W/m2
13:12 37.6 °F 36.0 °F 29.91 in West 1.0 mph 3.0 mph 94% 0.00 in 49 W/m2
13:18 37.5 °F 35.9 °F 29.91 in West 1.0 mph 3.0 mph 94% 0.00 in 40 W/m2
13:24 37.5 °F 35.7 °F 29.91 in West 1.0 mph 3.0 mph 93% 0.00 in 37 W/m2
13:30 37.5 °F 35.9 °F 29.91 in West 1.0 mph 1.0 mph 94% 0.00 in 39 W/m2
13:36 37.5 °F 35.9 °F 29.91 in West 1.0 mph 2.0 mph 94% 0.00 in 32 W/m2
13:42 37.5 °F 35.9 °F 29.91 in WSW 1.0 mph 1.0 mph 94% 0.00 in 40 W/m2
13:48 37.5 °F 35.9 °F 29.91 in WSW 1.0 mph 4.0 mph 94% 0.00 in 35 W/m2
13:54 37.5 °F 35.9 °F 29.92 in WSW 1.0 mph 4.0 mph 94% 0.00 in 30 W/m2
14:00 37.4 °F 35.6 °F 29.92 in WSW 1.0 mph 1.0 mph 93% 0.00 in 23 W/m2
14:06 37.4 °F 35.6 °F 29.93 in WSW 2.0 mph 2.0 mph 93% 0.00 in 26 W/m2
14:12 37.3 °F 35.5 °F 29.93 in WSW 1.0 mph 2.0 mph 93% 0.00 in 26 W/m2
14:18 37.3 °F 35.5 °F 29.93 in WSW 1.0 mph 3.0 mph 93% 0.00 in 26 W/m2
14:24 37.3 °F 35.5 °F 29.93 in WSW 1.0 mph 1.0 mph 93% 0.00 in 26 W/m2
14:30 37.3 °F 35.5 °F 29.93 in WSW 1.0 mph 2.0 mph 93% 0.00 in 28 W/m2
14:36 37.3 °F 35.5 °F 29.94 in WSW 1.0 mph 2.0 mph 93% 0.00 in 30 W/m2
14:42 37.3 °F 35.5 °F 29.94 in WSW 1.0 mph 3.0 mph 93% 0.00 in 26 W/m2
14:48 37.3 °F 35.5 °F 29.94 in WSW 1.0 mph 3.0 mph 93% 0.00 in 26 W/m2
14:54 37.3 °F 35.5 °F 29.94 in Calm   2.0 mph 93% 0.00 in 19 W/m2
15:00 37.3 °F 35.5 °F 29.94 in Calm     93% 0.00 in 12 W/m2
15:06 37.2 °F 35.4 °F 29.95 in Calm     93% 0.00 in 12 W/m2
15:12 37.2 °F 35.4 °F 29.95 in Calm   2.0 mph 93% 0.00 in 14 W/m2
15:18 37.2 °F 35.4 °F 29.95 in WSW 1.0 mph 2.0 mph 93% 0.00 in 14 W/m2
15:24 37.1 °F 35.3 °F 29.95 in WSW 1.0 mph 2.0 mph 93% 0.00 in 18 W/m2
15:30 37.1 °F 35.5 °F 29.96 in WNW 1.0 mph 1.0 mph 94% 0.00 in 14 W/m2
15:36 37.1 °F 35.5 °F 29.96 in WNW 1.0 mph 1.0 mph 94% 0.00 in 11 W/m2
15:42 37.1 °F 35.3 °F 29.96 in Calm   1.0 mph 93% 0.00 in 11 W/m2
15:48 37.1 °F 35.3 °F 29.97 in WNW 1.0 mph 1.0 mph 93% 0.00 in 9 W/m2
15:56 37.0 °F 35.2 °F 29.97 in WSW 1.0 mph 2.0 mph 93% 0.00 in 7 W/m2
16:02 37.0 °F 35.2 °F 29.97 in WNW 2.0 mph 5.0 mph 93% 0.00 in 7 W/m2
16:08 37.0 °F 35.2 °F 29.97 in WNW 2.0 mph 5.0 mph 93% 0.00 in 7 W/m2
16:16 36.9 °F 35.1 °F 29.97 in West 1.0 mph 2.0 mph 93% 0.00 in 5 W/m2
16:22 36.8 °F 35.0 °F 29.97 in West 1.0 mph 3.0 mph 93% 0.00 in 0 W/m2
16:28 36.8 °F 35.0 °F 29.98 in WNW 1.0 mph 4.0 mph 93% 0.00 in 0 W/m2
16:36 36.8 °F 35.0 °F 29.98 in West 2.0 mph 3.0 mph 93% 0.00 in 0 W/m2
16:42 36.7 °F 34.9 °F 29.98 in WNW 1.0 mph 3.0 mph 93% 0.00 in 0 W/m2
16:48 36.7 °F 34.9 °F 29.99 in West 1.0 mph 3.0 mph 93% 0.00 in 0 W/m2
16:54 36.7 °F 34.9 °F 29.99 in West 1.0 mph 1.0 mph 93% 0.00 in 0 W/m2
17:00 36.6 °F 34.8 °F 29.99 in Calm     93% 0.00 in 0 W/m2
17:06 36.6 °F 34.8 °F 29.99 in Calm     93% 0.00 in 0 W/m2
17:12 36.6 °F 34.8 °F 29.99 in Calm     93% 0.00 in 0 W/m2
17:18 36.6 °F 34.8 °F 29.99 in Calm   2.0 mph 93% 0.00 in 0 W/m2
17:24 36.5 °F 34.7 °F 29.99 in Calm     93% 0.00 in 0 W/m2
17:30 36.5 °F 34.9 °F 30.00 in Calm     94% 0.00 in 0 W/m2
17:36 36.5 °F 34.9 °F 30.00 in Calm   1.0 mph 94% 0.00 in 0 W/m2
17:42 36.5 °F 34.9 °F 30.00 in Calm     94% 0.00 in 0 W/m2
17:48 36.5 °F 34.9 °F 30.00 in Calm   3.0 mph 94% 0.00 in 0 W/m2
17:54 36.4 °F 34.8 °F 30.00 in WSW 1.0 mph 1.0 mph 94% 0.00 in 0 W/m2
18:00 36.4 °F 34.8 °F 30.00 in WSW 1.0 mph 1.0 mph 94% 0.00 in 0 W/m2
18:06 36.4 °F 34.8 °F 30.00 in Calm   1.0 mph 94% 0.00 in 0 W/m2
18:12 36.4 °F 34.8 °F 29.99 in Calm     94% 0.00 in 0 W/m2
18:18 36.4 °F 34.8 °F 29.99 in Calm     94% 0.00 in 0 W/m2
18:24 36.4 °F 34.8 °F 29.99 in Calm   1.0 mph 94% 0.00 in 0 W/m2
18:30 36.3 °F 34.7 °F 29.99 in Calm     94% 0.00 in 0 W/m2
18:36 36.3 °F 34.7 °F 29.99 in Calm   2.0 mph 94% 0.00 in 0 W/m2
18:42 36.3 °F 34.7 °F 29.99 in Calm     94% 0.00 in 0 W/m2
18:48 36.3 °F 34.7 °F 29.99 in Calm     94% 0.00 in 0 W/m2
18:54 36.2 °F 34.6 °F 29.99 in Calm   1.0 mph 94% 0.00 in 0 W/m2
19:00 36.2 °F 34.6 °F 29.99 in Calm   1.0 mph 94% 0.00 in 0 W/m2
19:06 36.2 °F 34.6 °F 29.99 in WSW 1.0 mph 2.0 mph 94% 0.00 in 0 W/m2
19:12 36.1 °F 34.5 °F 29.99 in Calm   1.0 mph 94% 0.00 in 0 W/m2
19:18 36.1 °F 34.5 °F 29.99 in Calm   1.0 mph 94% 0.00 in 0 W/m2
19:24 36.1 °F 34.5 °F 29.99 in Calm   1.0 mph 94% 0.00 in 0 W/m2
19:30 36.1 °F 34.5 °F 29.99 in Calm   1.0 mph 94% 0.00 in 0 W/m2
19:36 36.1 °F 34.5 °F 29.99 in Calm   1.0 mph 94% 0.00 in 0 W/m2
19:42 36.1 °F 34.5 °F 29.99 in Calm   1.0 mph 94% 0.00 in 0 W/m2
19:48 36.1 °F 34.5 °F 29.99 in WSW 1.0 mph 1.0 mph 94% 0.00 in 0 W/m2
19:54 36.1 °F 34.5 °F 29.99 in Calm   1.0 mph 94% 0.00 in 0 W/m2
20:00 36.1 °F 34.5 °F 29.99 in Calm   1.0 mph 94% 0.00 in 0 W/m2
20:06 36.1 °F 34.5 °F 29.97 in WSW 1.0 mph 2.0 mph 94% 0.00 in 0 W/m2
20:12 36.1 °F 34.5 °F 29.97 in South 1.0 mph 2.0 mph 94% 0.00 in 0 W/m2
20:18 36.1 °F 34.5 °F 29.97 in South 1.0 mph 2.0 mph 94% 0.00 in 0 W/m2
20:24 36.1 °F 34.5 °F 29.97 in SSW 1.0 mph 2.0 mph 94% 0.00 in 0 W/m2
20:30 36.1 °F 34.5 °F 29.98 in West 1.0 mph 3.0 mph 94% 0.00 in 0 W/m2
20:36 36.2 °F 34.6 °F 29.99 in West 2.0 mph 3.0 mph 94% 0.00 in 0 W/m2
20:42 36.1 °F 34.5 °F 29.99 in West 1.0 mph 2.0 mph 94% 0.00 in 0 W/m2
20:48 36.1 °F 34.5 °F 29.98 in West 1.0 mph 2.0 mph 94% 0.00 in 0 W/m2
20:54 36.1 °F 34.5 °F 29.98 in Calm   1.0 mph 94% 0.00 in 0 W/m2
21:00 36.1 °F 34.5 °F 29.98 in West 1.0 mph 1.0 mph 94% 0.00 in 0 W/m2
21:06 36.1 °F 34.5 °F 29.98 in WSW 1.0 mph 3.0 mph 94% 0.00 in 0 W/m2
21:12 36.1 °F 34.5 °F 29.98 in SSW 1.0 mph 3.0 mph 94% 0.00 in 0 W/m2
21:18 36.1 °F 34.5 °F 29.98 in SW 1.0 mph 3.0 mph 94% 0.00 in 0 W/m2
21:24 36.1 °F 34.5 °F 29.98 in SW 1.0 mph 1.0 mph 94% 0.00 in 0 W/m2
21:30 36.1 °F 34.5 °F 29.98 in SW 1.0 mph 1.0 mph 94% 0.00 in 0 W/m2
21:36 36.1 °F 34.5 °F 29.99 in WSW 1.0 mph 2.0 mph 94% 0.00 in 0 W/m2
21:42 36.1 °F 34.5 °F 29.98 in Calm   1.0 mph 94% 0.00 in 0 W/m2
21:48 36.1 °F 34.5 °F 29.98 in Calm   1.0 mph 94% 0.00 in 0 W/m2
21:54 36.1 °F 34.5 °F 29.98 in Calm     94% 0.00 in 0 W/m2
22:00 36.1 °F 34.5 °F 29.98 in Calm     94% 0.00 in 0 W/m2
22:06 36.1 °F 34.5 °F 29.97 in Calm   1.0 mph 94% 0.00 in 0 W/m2
22:12 36.1 °F 34.5 °F 29.97 in Calm   1.0 mph 94% 0.00 in 0 W/m2
22:18 36.1 °F 34.5 °F 29.97 in WSW 1.0 mph 2.0 mph 94% 0.00 in 0 W/m2
22:24 36.1 °F 34.5 °F 29.97 in WSW 1.0 mph 1.0 mph 94% 0.00 in 0 W/m2
22:30 36.1 °F 34.5 °F 29.97 in SW 1.0 mph 1.0 mph 94% 0.00 in 0 W/m2
22:36 36.1 °F 34.5 °F 29.97 in SW 1.0 mph 1.0 mph 94% 0.00 in 0 W/m2
22:42 36.1 °F 34.5 °F 29.97 in SW 1.0 mph 1.0 mph 94% 0.00 in 0 W/m2
22:48 36.1 °F 34.5 °F 29.98 in Calm   1.0 mph 94% 0.00 in 0 W/m2
22:54 36.1 °F 34.5 °F 29.98 in Calm     94% 0.00 in 0 W/m2
23:00 36.1 °F 34.5 °F 29.98 in Calm     94% 0.00 in 0 W/m2
23:06 36.0 °F 34.4 °F 29.98 in Calm     94% 0.00 in 0 W/m2
23:12 36.0 °F 34.4 °F 29.98 in Calm     94% 0.00 in 0 W/m2
23:18 36.0 °F 34.4 °F 29.98 in Calm   2.0 mph 94% 0.00 in 0 W/m2
23:24 36.1 °F 34.5 °F 29.99 in SW 1.0 mph 1.0 mph 94% 0.00 in 0 W/m2
23:30 36.1 °F 34.5 °F 29.99 in SW 1.0 mph 1.0 mph 94% 0.00 in 0 W/m2
23:36 36.1 °F 34.5 °F 29.99 in Calm   2.0 mph 94% 0.00 in 0 W/m2
23:42 36.1 °F 34.5 °F 29.99 in Calm   1.0 mph 94% 0.00 in 0 W/m2
23:48 36.0 °F 34.4 °F 29.99 in Calm   1.0 mph 94% 0.00 in 0 W/m2
23:54 36.0 °F 34.4 °F 29.99 in Calm   1.0 mph 94% 0.00 in 0 W/m2
Country Meadow, Clay, NY, USA
Compliments of Weather Underground - 2 mb